Norwegian Star — C6FR3 — position and weather

sailwx.info

Track history (hours):
 
Tides and Currents Weather Stations Pressure Air Temp Water Temp Dewpoint Dewpoint Depression Visibility Wind Speed Wind Dir Waves Ship Positions

Norwegian Star

Operator: Norwegian Cruise Line

Last reported at 2019-Jul-14 13:37 UTC. Time now 2019-Jul-16 02:02 UTC.
Position N 37°12' E 024°49'.

Type: Passenger vessel. MMSI: 311082000.

Date/timePositionNaut miles runAvg speedWind from/ knotsBaromVisibWave heightAir tempDewpointWater temp
2019-Jul-14 13:37N 37°12' E 024°49'323.9
2019-Jul-14 13:31N 37°14' E 024°52'1222.0
2019-Jul-14 12:59N 37°20' E 025°04'1020.9
2019-Jul-14 12:30N 37°28' E 025°12'510.8
2019-Jul-14 12:00N 37°28' E 025°19'0 0.0
2019-Jul-14 11:26N 37°28' E 025°19'0 0.0
2019-Jul-14 10:59N 37°28' E 025°19'0 0.0
2019-Jul-14 10:23N 37°28' E 025°19'0 0.0
2019-Jul-14 09:59N 37°28' E 025°19'0 0.0
2019-Jul-14 09:20N 37°28' E 025°19'0 0.0
2019-Jul-14 08:56N 37°28' E 025°19'0 0.0
2019-Jul-14 08:29N 37°28' E 025°19'0 0.0
2019-Jul-14 07:59N 37°28' E 025°19'0 0.0
2019-Jul-14 07:05N 37°28' E 025°19'0 0.0
2019-Jul-14 06:59N 37°28' E 025°19'0 0.0
2019-Jul-14 06:26N 37°28' E 025°19'0 0.0
2019-Jul-14 05:59N 37°28' E 025°19'0 0.0
2019-Jul-14 05:29N 37°28' E 025°19'0 0.0
2019-Jul-14 04:59N 37°28' E 025°19'0 0.0
2019-Jul-14 04:29N 37°28' E 025°19'0 0.0
2019-Jul-14 03:59N 37°28' E 025°19'0 0.1
2019-Jul-14 03:31N 37°28' E 025°19'3 5.1
2019-Jul-14 03:00N 37°30' E 025°17'612.5
2019-Jul-14 02:30N 37°34' E 025°23'612.5
2019-Jul-14 02:00N 37°33' E 025°31'1613.7
2019-Jul-14 00:49N 37°25' E 025°48'413.6
2019-Jul-14 00:30N 37°23' E 025°53'10 0.4
2019-Jul-12 22:37N 37°13' E 025°50'221.1
2019-Jul-12 22:30N 37°14' E 025°48'1221.2
2019-Jul-12 21:57N 37°15' E 025°33'920.6
2019-Jul-12 21:30N 37°15' E 025°22'1020.4
2019-Jul-12 21:00N 37°16' E 025°09'1020.5
2019-Jul-12 20:30N 37°15' E 024°56'4119.7
2019-Jul-12 18:27N 37°25' E 024°07'1521.4
2019-Jul-12 17:46N 37°35' E 023°52'621.4
2019-Jul-12 17:30N 37°38' E 023°46'1020.6
2019-Jul-12 17:00N 37°46' E 023°38'1019.2
2019-Jul-12 16:30N 37°55' E 023°36'2 3.7
2019-Jul-12 16:00N 37°56' E 023°38'0 0.0
2019-Jul-12 15:30N 37°56' E 023°38'0 0.0
2019-Jul-12 15:00N 37°56' E 023°38'0 0.0
2019-Jul-12 14:30N 37°56' E 023°38'0 0.0
2019-Jul-12 14:00N 37°56' E 023°38'0 0.0
2019-Jul-12 13:30N 37°56' E 023°38'0 0.0
2019-Jul-12 13:00N 37°56' E 023°38'0 0.0
2019-Jul-12 12:30N 37°56' E 023°38'0 0.0
2019-Jul-12 12:00N 37°56' E 023°38'0 0.0
2019-Jul-12 11:30N 37°56' E 023°38'0 0.0
2019-Jul-12 11:00N 37°56' E 023°38'0 0.0
2019-Jul-12 10:30N 37°56' E 023°38'0 0.0
2019-Jul-12 10:00N 37°56' E 023°38'0 0.0
2019-Jul-12 09:30N 37°56' E 023°38'0 0.0
2019-Jul-12 09:00N 37°56' E 023°38'0 0.0
2019-Jul-12 08:31N 37°56' E 023°38'0 0.0
2019-Jul-12 08:00N 37°56' E 023°38'0 0.0
2019-Jul-12 07:30N 37°56' E 023°38'0 0.0
2019-Jul-12 07:00N 37°56' E 023°38'3197.9
2019-Jul-12 07:00N 37°54' E 023°36'3 5.9 050 / 61013.0 5.4 25.0
2019-Jul-12 06:31N 37°56' E 023°38'0 0.0
2019-Jul-12 06:01N 37°56' E 023°38'0 0.0
2019-Jul-12 05:30N 37°56' E 023°38'0 0.0
2019-Jul-12 05:00N 37°56' E 023°38'0 0.0
2019-Jul-12 04:30N 37°56' E 023°38'0 0.0
2019-Jul-12 04:00N 37°56' E 023°38'0 0.1
2019-Jul-12 03:31N 37°56' E 023°38'2 3.0
2019-Jul-12 03:00N 37°55' E 023°37'1313.1
2019-Jul-12 02:00N 37°44' E 023°43'1122.7
2019-Jul-12 01:30N 37°32' E 023°45'1223.4
2019-Jul-12 01:00N 37°22' E 023°51'229 5.5
2019-Jul-10 07:00N 39°36' E 019°54'203 9.2 120 / 71010.0 5.4 29.0
2019-Jul-09 09:00N 42°42' E 018°06'151263.0 270 / 61013.010.8 31.0
2019-Jul-08 09:00N 43°30' W 016°24'1302142.6 170 / 61012.010.8 28.0
2019-Jul-07 23:52N 44°26' E 013°44'820.8
2019-Jul-07 23:30N 44°32' E 013°38'1020.6
2019-Jul-07 23:01N 44°40' E 013°30'1020.7
2019-Jul-07 22:31N 44°49' E 013°22'1020.4
2019-Jul-07 22:01N 44°57' E 013°13'1020.5
2019-Jul-07 21:31N 45°04' E 013°03'1020.4
2019-Jul-07 21:01N 45°11' E 012°53'1020.2
2019-Jul-07 20:31N 45°18' E 012°42'918.6
2019-Jul-07 20:00N 45°23' E 012°31'510.3
2019-Jul-07 19:30N 45°26' E 012°25'2 4.8
2019-Jul-07 19:00N 45°26' E 012°21'2 3.9
2019-Jul-07 18:30N 45°26' E 012°18'0 0.6
2019-Jul-07 17:59N 45°26' E 012°19'0 0.0
2019-Jul-07 17:29N 45°26' E 012°19'0 0.0
2019-Jul-07 16:59N 45°26' E 012°19'0 0.0
2019-Jul-07 16:29N 45°26' E 012°19'0 0.0
2019-Jul-07 15:56N 45°26' E 012°19'0 0.0
2019-Jul-07 15:29N 45°26' E 012°19'0 0.0
2019-Jul-07 14:59N 45°26' E 012°19'0 0.0
2019-Jul-07 14:29N 45°26' E 012°19'0 0.0
2019-Jul-07 13:59N 45°26' E 012°19'0 0.0
2019-Jul-07 13:29N 45°26' E 012°19'0 0.0
2019-Jul-07 12:56N 45°26' E 012°19'0 0.0
2019-Jul-07 12:29N 45°26' E 012°19'0 0.0
2019-Jul-07 11:56N 45°26' E 012°19'0 0.0
2019-Jul-07 11:26N 45°26' E 012°19'0 0.0
2019-Jul-07 10:59N 45°26' E 012°19'0 0.0
2019-Jul-07 10:26N 45°26' E 012°19'2 5.0
2019-Jul-07 10:00N 45°24' E 012°18'2800.9 190 / 61009.010.8 27.0
2019-Jul-07 09:59N 45°26' E 012°19'0 0.0
2019-Jul-07 09:29N 45°26' E 012°19'0 0.0
2019-Jul-07 08:56N 45°26' E 012°19'0 0.0
2019-Jul-07 08:29N 45°26' E 012°19'0 0.0
2019-Jul-07 07:53N 45°26' E 012°19'0 0.0
2019-Jul-07 07:26N 45°26' E 012°19'0 0.0
2019-Jul-07 06:59N 45°26' E 012°19'0 0.0
2019-Jul-07 06:29N 45°26' E 012°19'0 0.0
2019-Jul-07 05:59N 45°26' E 012°19'0 0.0
2019-Jul-07 05:26N 45°26' E 012°19'0 0.0
2019-Jul-07 04:56N 45°26' E 012°19'0 0.0
2019-Jul-07 04:30N 45°26' E 012°19'0 0.6
2019-Jul-07 04:00N 45°26' E 012°18'2 3.9
2019-Jul-07 03:30N 45°26' E 012°21'2 4.6
2019-Jul-07 03:00N 45°26' E 012°24'1211.8
2019-Jul-07 02:01N 45°20' E 012°39'917.8
2019-Jul-07 01:31N 45°14' E 012°49'917.8
2019-Jul-07 01:01N 45°07' E 012°57'817.0
2019-Jul-07 00:31N 45°03' E 013°07'917.1
2019-Jul-07 00:00N 44°59' E 013°18'1020.4
2019-Jul-06 23:31N 44°51' E 013°26'1121.9
2019-Jul-06 23:00N 44°41' E 013°34'1122.1
2019-Jul-06 22:30N 44°32' E 013°43'1121.9
2019-Jul-06 22:01N 44°23' E 013°51'1121.7
2019-Jul-06 21:31N 44°14' E 013°60'1121.9
2019-Jul-06 21:01N 44°05' E 014°08'1121.9
2019-Jul-06 20:31N 43°57' E 014°18'1122.0
2019-Jul-06 20:00N 43°49' E 014°28'1121.9
2019-Jul-06 19:31N 43°40' E 014°38'1121.8
2019-Jul-06 19:01N 43°32' E 014°48'1121.9
2019-Jul-06 18:31N 43°24' E 014°58'1122.2
2019-Jul-06 18:00N 43°15' E 015°08'1122.0
2019-Jul-06 17:30N 43°07' E 015°18'1121.5
2019-Jul-06 17:00N 42°60' E 015°29'11712.9
2019-Jul-06 08:00N 42°42' E 018°06'13311.6 210 / 71014.010.8 32.0
2019-Jul-05 20:27N 40°32' E 018°49'6521.4
2019-Jul-05 17:26N 39°31' E 019°17'1221.8
2019-Jul-05 16:53N 39°21' E 019°24'921.9
2019-Jul-05 16:30N 39°13' E 019°29'7710.3
2019-Jul-05 09:00N 38°12' E 020°30'18111.1 270 / 61015.010.8 30.0
2019-Jul-04 16:39N 36°40' E 023°46'6022.0
2019-Jul-04 13:55N 37°13' E 024°49'  
Track history (hours):
 
Tides and Currents Weather Stations Pressure Air Temp Water Temp Dewpoint Dewpoint Depression Visibility Wind Speed Wind Dir Waves Ship Positions

Norwegian Star

Operator: Norwegian Cruise Line

Last reported at 2019-Jul-14 13:37 UTC. Time now 2019-Jul-16 02:02 UTC.
Position N 37°12' E 024°49'.

Type: Passenger vessel. MMSI: 311082000.

Date/timePositionNaut miles runAvg speedWind from/ knotsBaromVisibWave heightAir tempDewpointWater temp
2019-Jul-14 13:37N 37°12' E 024°49'323.9
2019-Jul-14 13:31N 37°14' E 024°52'1222.0
2019-Jul-14 12:59N 37°20' E 025°04'1020.9
2019-Jul-14 12:30N 37°28' E 025°12'510.8
2019-Jul-14 12:00N 37°28' E 025°19'0 0.0
2019-Jul-14 11:26N 37°28' E 025°19'0 0.0
2019-Jul-14 10:59N 37°28' E 025°19'0 0.0
2019-Jul-14 10:23N 37°28' E 025°19'0 0.0
2019-Jul-14 09:59N 37°28' E 025°19'0 0.0
2019-Jul-14 09:20N 37°28' E 025°19'0 0.0
2019-Jul-14 08:56N 37°28' E 025°19'0 0.0
2019-Jul-14 08:29N 37°28' E 025°19'0 0.0
2019-Jul-14 07:59N 37°28' E 025°19'0 0.0
2019-Jul-14 07:05N 37°28' E 025°19'0 0.0
2019-Jul-14 06:59N 37°28' E 025°19'0 0.0
2019-Jul-14 06:26N 37°28' E 025°19'0 0.0
2019-Jul-14 05:59N 37°28' E 025°19'0 0.0
2019-Jul-14 05:29N 37°28' E 025°19'0 0.0
2019-Jul-14 04:59N 37°28' E 025°19'0 0.0
2019-Jul-14 04:29N 37°28' E 025°19'0 0.0
2019-Jul-14 03:59N 37°28' E 025°19'0 0.1
2019-Jul-14 03:31N 37°28' E 025°19'3 5.1
2019-Jul-14 03:00N 37°30' E 025°17'612.5
2019-Jul-14 02:30N 37°34' E 025°23'612.5
2019-Jul-14 02:00N 37°33' E 025°31'1613.7
2019-Jul-14 00:49N 37°25' E 025°48'413.6
2019-Jul-14 00:30N 37°23' E 025°53'10 0.4
2019-Jul-12 22:37N 37°13' E 025°50'221.1
2019-Jul-12 22:30N 37°14' E 025°48'1221.2
2019-Jul-12 21:57N 37°15' E 025°33'920.6
2019-Jul-12 21:30N 37°15' E 025°22'1020.4
2019-Jul-12 21:00N 37°16' E 025°09'1020.5
2019-Jul-12 20:30N 37°15' E 024°56'4119.7
2019-Jul-12 18:27N 37°25' E 024°07'1521.4
2019-Jul-12 17:46N 37°35' E 023°52'621.4
2019-Jul-12 17:30N 37°38' E 023°46'1020.6
2019-Jul-12 17:00N 37°46' E 023°38'1019.2
2019-Jul-12 16:30N 37°55' E 023°36'2 3.7
2019-Jul-12 16:00N 37°56' E 023°38'0 0.0
2019-Jul-12 15:30N 37°56' E 023°38'0 0.0
2019-Jul-12 15:00N 37°56' E 023°38'0 0.0
2019-Jul-12 14:30N 37°56' E 023°38'0 0.0
2019-Jul-12 14:00N 37°56' E 023°38'0 0.0
2019-Jul-12 13:30N 37°56' E 023°38'0 0.0
2019-Jul-12 13:00N 37°56' E 023°38'0 0.0
2019-Jul-12 12:30N 37°56' E 023°38'0 0.0
2019-Jul-12 12:00N 37°56' E 023°38'0 0.0
2019-Jul-12 11:30N 37°56' E 023°38'0 0.0
2019-Jul-12 11:00N 37°56' E 023°38'0 0.0
2019-Jul-12 10:30N 37°56' E 023°38'0 0.0
2019-Jul-12 10:00N 37°56' E 023°38'0 0.0
2019-Jul-12 09:30N 37°56' E 023°38'0 0.0
2019-Jul-12 09:00N 37°56' E 023°38'0 0.0
2019-Jul-12 08:31N 37°56' E 023°38'0 0.0
2019-Jul-12 08:00N 37°56' E 023°38'0 0.0
2019-Jul-12 07:30N 37°56' E 023°38'0 0.0
2019-Jul-12 07:00N 37°56' E 023°38'3197.9
2019-Jul-12 07:00N 37°54' E 023°36'3 5.9 050 / 61013.0 5.4 25.0
2019-Jul-12 06:31N 37°56' E 023°38'0 0.0
2019-Jul-12 06:01N 37°56' E 023°38'0 0.0
2019-Jul-12 05:30N 37°56' E 023°38'0 0.0
2019-Jul-12 05:00N 37°56' E 023°38'0 0.0
2019-Jul-12 04:30N 37°56' E 023°38'0 0.0
2019-Jul-12 04:00N 37°56' E 023°38'0 0.1
2019-Jul-12 03:31N 37°56' E 023°38'2 3.0
2019-Jul-12 03:00N 37°55' E 023°37'1313.1
2019-Jul-12 02:00N 37°44' E 023°43'1122.7
2019-Jul-12 01:30N 37°32' E 023°45'1223.4
2019-Jul-12 01:00N 37°22' E 023°51'229 5.5
2019-Jul-10 07:00N 39°36' E 019°54'203 9.2 120 / 71010.0 5.4 29.0
2019-Jul-09 09:00N 42°42' E 018°06'151263.0 270 / 61013.010.8 31.0
2019-Jul-08 09:00N 43°30' W 016°24'1302142.6 170 / 61012.010.8 28.0
2019-Jul-07 23:52N 44°26' E 013°44'820.8
2019-Jul-07 23:30N 44°32' E 013°38'1020.6
2019-Jul-07 23:01N 44°40' E 013°30'1020.7
2019-Jul-07 22:31N 44°49' E 013°22'1020.4
2019-Jul-07 22:01N 44°57' E 013°13'1020.5
2019-Jul-07 21:31N 45°04' E 013°03'1020.4
2019-Jul-07 21:01N 45°11' E 012°53'1020.2
2019-Jul-07 20:31N 45°18' E 012°42'918.6
2019-Jul-07 20:00N 45°23' E 012°31'510.3
2019-Jul-07 19:30N 45°26' E 012°25'2 4.8
2019-Jul-07 19:00N 45°26' E 012°21'2 3.9
2019-Jul-07 18:30N 45°26' E 012°18'0 0.6
2019-Jul-07 17:59N 45°26' E 012°19'0 0.0
2019-Jul-07 17:29N 45°26' E 012°19'0 0.0
2019-Jul-07 16:59N 45°26' E 012°19'0 0.0
2019-Jul-07 16:29N 45°26' E 012°19'0 0.0
2019-Jul-07 15:56N 45°26' E 012°19'0 0.0
2019-Jul-07 15:29N 45°26' E 012°19'0 0.0
2019-Jul-07 14:59N 45°26' E 012°19'0 0.0
2019-Jul-07 14:29N 45°26' E 012°19'0 0.0
2019-Jul-07 13:59N 45°26' E 012°19'0 0.0
2019-Jul-07 13:29N 45°26' E 012°19'0 0.0
2019-Jul-07 12:56N 45°26' E 012°19'0 0.0
2019-Jul-07 12:29N 45°26' E 012°19'0 0.0
2019-Jul-07 11:56N 45°26' E 012°19'0 0.0
2019-Jul-07 11:26N 45°26' E 012°19'0 0.0
2019-Jul-07 10:59N 45°26' E 012°19'0 0.0
2019-Jul-07 10:26N 45°26' E 012°19'2 5.0
2019-Jul-07 10:00N 45°24' E 012°18'2800.9 190 / 61009.010.8 27.0
2019-Jul-07 09:59N 45°26' E 012°19'0 0.0
2019-Jul-07 09:29N 45°26' E 012°19'0 0.0
2019-Jul-07 08:56N 45°26' E 012°19'0 0.0
2019-Jul-07 08:29N 45°26' E 012°19'0 0.0
2019-Jul-07 07:53N 45°26' E 012°19'0 0.0
2019-Jul-07 07:26N 45°26' E 012°19'0 0.0
2019-Jul-07 06:59N 45°26' E 012°19'0 0.0
2019-Jul-07 06:29N 45°26' E 012°19'0 0.0
2019-Jul-07 05:59N 45°26' E 012°19'0 0.0
2019-Jul-07 05:26N 45°26' E 012°19'0 0.0
2019-Jul-07 04:56N 45°26' E 012°19'0 0.0
2019-Jul-07 04:30N 45°26' E 012°19'0 0.6
2019-Jul-07 04:00N 45°26' E 012°18'2 3.9
2019-Jul-07 03:30N 45°26' E 012°21'2 4.6
2019-Jul-07 03:00N 45°26' E 012°24'1211.8
2019-Jul-07 02:01N 45°20' E 012°39'917.8
2019-Jul-07 01:31N 45°14' E 012°49'917.8
2019-Jul-07 01:01N 45°07' E 012°57'817.0
2019-Jul-07 00:31N 45°03' E 013°07'917.1
2019-Jul-07 00:00N 44°59' E 013°18'1020.4
2019-Jul-06 23:31N 44°51' E 013°26'1121.9
2019-Jul-06 23:00N 44°41' E 013°34'1122.1
2019-Jul-06 22:30N 44°32' E 013°43'1121.9
2019-Jul-06 22:01N 44°23' E 013°51'1121.7
2019-Jul-06 21:31N 44°14' E 013°60'1121.9
2019-Jul-06 21:01N 44°05' E 014°08'1121.9
2019-Jul-06 20:31N 43°57' E 014°18'1122.0
2019-Jul-06 20:00N 43°49' E 014°28'1121.9
2019-Jul-06 19:31N 43°40' E 014°38'1121.8
2019-Jul-06 19:01N 43°32' E 014°48'1121.9
2019-Jul-06 18:31N 43°24' E 014°58'1122.2
2019-Jul-06 18:00N 43°15' E 015°08'1122.0
2019-Jul-06 17:30N 43°07' E 015°18'1121.5
2019-Jul-06 17:00N 42°60' E 015°29'11712.9
2019-Jul-06 08:00N 42°42' E 018°06'13311.6 210 / 71014.010.8 32.0
2019-Jul-05 20:27N 40°32' E 018°49'6521.4
2019-Jul-05 17:26N 39°31' E 019°17'1221.8
2019-Jul-05 16:53N 39°21' E 019°24'921.9
2019-Jul-05 16:30N 39°13' E 019°29'7710.3
2019-Jul-05 09:00N 38°12' E 020°30'18111.1 270 / 61015.010.8 30.0
2019-Jul-04 16:39N 36°40' E 023°46'6022.0
2019-Jul-04 13:55N 37°13' E 024°49'  

Dump ship's entire track history